sensor_id;sensor_type;location;lat;lon;timestamp;P1;durP1;ratioP1;P2;durP2;ratioP2
5813;SDS011;2933;52.302;8.134;2023-05-10T00:03:39;9.20;;;7.53;;
5813;SDS011;2933;52.302;8.134;2023-05-10T00:08:41;9.57;;;7.70;;
5813;SDS011;2933;52.302;8.134;2023-05-10T00:13:43;9.27;;;7.50;;
5813;SDS011;2933;52.302;8.134;2023-05-10T00:18:45;8.70;;;7.30;;
5813;SDS011;2933;52.302;8.134;2023-05-10T00:23:47;10.20;;;7.20;;
5813;SDS011;2933;52.302;8.134;2023-05-10T00:28:49;7.57;;;6.60;;
5813;SDS011;2933;52.302;8.134;2023-05-10T00:33:52;8.20;;;7.33;;
5813;SDS011;2933;52.302;8.134;2023-05-10T00:38:53;8.57;;;6.57;;
5813;SDS011;2933;52.302;8.134;2023-05-10T00:43:55;10.80;;;7.30;;
5813;SDS011;2933;52.302;8.134;2023-05-10T00:48:58;6.20;;;5.60;;
5813;SDS011;2933;52.302;8.134;2023-05-10T00:54:00;8.57;;;6.70;;
5813;SDS011;2933;52.302;8.134;2023-05-10T00:59:02;7.80;;;6.20;;
5813;SDS011;2933;52.302;8.134;2023-05-10T01:04:05;9.83;;;7.17;;
5813;SDS011;2933;52.302;8.134;2023-05-10T01:09:06;9.30;;;6.90;;
5813;SDS011;2933;52.302;8.134;2023-05-10T01:14:08;7.73;;;6.63;;
5813;SDS011;2933;52.302;8.134;2023-05-10T01:19:12;6.50;;;5.83;;
5813;SDS011;2933;52.302;8.134;2023-05-10T01:24:30;8.07;;;5.70;;
5813;SDS011;2933;52.302;8.134;2023-05-10T01:35:39;6.80;;;5.60;;
5813;SDS011;2933;52.302;8.134;2023-05-10T01:40:46;15.53;;;6.20;;
5813;SDS011;2933;52.302;8.134;2023-05-10T01:45:56;7.10;;;5.80;;
5813;SDS011;2933;52.302;8.134;2023-05-10T01:51:10;7.20;;;5.83;;
5813;SDS011;2933;52.302;8.134;2023-05-10T01:56:13;6.17;;;5.37;;
5813;SDS011;2933;52.302;8.134;2023-05-10T02:01:16;6.60;;;5.40;;
5813;SDS011;2933;52.302;8.134;2023-05-10T02:06:24;6.43;;;5.80;;
5813;SDS011;2933;52.302;8.134;2023-05-10T02:11:28;7.20;;;5.40;;
5813;SDS011;2933;52.302;8.134;2023-05-10T02:16:31;5.37;;;4.93;;
5813;SDS011;2933;52.302;8.134;2023-05-10T02:21:35;3.07;;;2.97;;
5813;SDS011;2933;52.302;8.134;2023-05-10T02:26:38;4.10;;;3.80;;
5813;SDS011;2933;52.302;8.134;2023-05-10T02:31:41;3.53;;;3.30;;
5813;SDS011;2933;52.302;8.134;2023-05-10T02:36:45;4.20;;;3.80;;
5813;SDS011;2933;52.302;8.134;2023-05-10T02:41:47;2.93;;;2.83;;
5813;SDS011;2933;52.302;8.134;2023-05-10T02:46:50;3.33;;;3.13;;
5813;SDS011;2933;52.302;8.134;2023-05-10T02:51:54;3.13;;;2.93;;
5813;SDS011;2933;52.302;8.134;2023-05-10T02:56:58;2.87;;;2.67;;
5813;SDS011;2933;52.302;8.134;2023-05-10T03:02:02;2.40;;;2.30;;
5813;SDS011;2933;52.302;8.134;2023-05-10T03:07:06;2.87;;;2.67;;
5813;SDS011;2933;52.302;8.134;2023-05-10T03:12:10;2.00;;;1.90;;
5813;SDS011;2933;52.302;8.134;2023-05-10T03:17:18;1.30;;;1.30;;
5813;SDS011;2933;52.302;8.134;2023-05-10T03:22:29;1.33;;;1.23;;
5813;SDS011;2933;52.302;8.134;2023-05-10T03:27:34;1.47;;;1.17;;
5813;SDS011;2933;52.302;8.134;2023-05-10T03:32:37;2.77;;;1.07;;
5813;SDS011;2933;52.302;8.134;2023-05-10T03:37:40;2.00;;;1.90;;
5813;SDS011;2933;52.302;8.134;2023-05-10T03:42:42;2.23;;;2.13;;
5813;SDS011;2933;52.302;8.134;2023-05-10T03:47:43;2.60;;;2.50;;
5813;SDS011;2933;52.302;8.134;2023-05-10T03:52:46;13.43;;;2.57;;
5813;SDS011;2933;52.302;8.134;2023-05-10T03:57:48;4.10;;;2.27;;
5813;SDS011;2933;52.302;8.134;2023-05-10T04:02:49;2.40;;;2.30;;
5813;SDS011;2933;52.302;8.134;2023-05-10T04:07:52;2.43;;;2.33;;
5813;SDS011;2933;52.302;8.134;2023-05-10T04:12:54;2.40;;;2.30;;
5813;SDS011;2933;52.302;8.134;2023-05-10T04:17:56;3.90;;;3.60;;
5813;SDS011;2933;52.302;8.134;2023-05-10T04:22:59;4.23;;;3.83;;
5813;SDS011;2933;52.302;8.134;2023-05-10T04:28:00;5.13;;;4.40;;
5813;SDS011;2933;52.302;8.134;2023-05-10T04:33:02;5.60;;;5.10;;
5813;SDS011;2933;52.302;8.134;2023-05-10T04:38:05;7.50;;;5.80;;
5813;SDS011;2933;52.302;8.134;2023-05-10T04:43:07;8.07;;;5.87;;
5813;SDS011;2933;52.302;8.134;2023-05-10T04:48:08;8.10;;;6.10;;
5813;SDS011;2933;52.302;8.134;2023-05-10T04:53:11;5.90;;;5.40;;
5813;SDS011;2933;52.302;8.134;2023-05-10T04:58:13;8.57;;;6.23;;
5813;SDS011;2933;52.302;8.134;2023-05-10T05:03:14;7.50;;;5.80;;
5813;SDS011;2933;52.302;8.134;2023-05-10T05:08:18;6.63;;;5.33;;
5813;SDS011;2933;52.302;8.134;2023-05-10T05:13:20;5.30;;;4.80;;
5813;SDS011;2933;52.302;8.134;2023-05-10T05:18:21;5.60;;;5.10;;
5813;SDS011;2933;52.302;8.134;2023-05-10T05:23:24;5.80;;;5.20;;
5813;SDS011;2933;52.302;8.134;2023-05-10T05:28:26;5.60;;;4.93;;
5813;SDS011;2933;52.302;8.134;2023-05-10T05:33:32;5.03;;;4.53;;
5813;SDS011;2933;52.302;8.134;2023-05-10T05:38:35;7.00;;;4.27;;
5813;SDS011;2933;52.302;8.134;2023-05-10T05:43:37;4.03;;;3.63;;
5813;SDS011;2933;52.302;8.134;2023-05-10T05:48:38;5.73;;;4.30;;
5813;SDS011;2933;52.302;8.134;2023-05-10T05:53:41;4.87;;;4.40;;
5813;SDS011;2933;52.302;8.134;2023-05-10T05:58:43;5.37;;;4.23;;
5813;SDS011;2933;52.302;8.134;2023-05-10T06:03:45;6.33;;;4.80;;
5813;SDS011;2933;52.302;8.134;2023-05-10T06:08:56;6.30;;;4.70;;
5813;SDS011;2933;52.302;8.134;2023-05-10T06:14:01;7.73;;;5.70;;
5813;SDS011;2933;52.302;8.134;2023-05-10T06:19:03;5.57;;;4.53;;
5813;SDS011;2933;52.302;8.134;2023-05-10T06:24:11;6.53;;;5.00;;
5813;SDS011;2933;52.302;8.134;2023-05-10T06:29:27;10.30;;;6.73;;
5813;SDS011;2933;52.302;8.134;2023-05-10T06:34:37;4.70;;;4.20;;
5813;SDS011;2933;52.302;8.134;2023-05-10T06:39:52;4.90;;;4.50;;
5813;SDS011;2933;52.302;8.134;2023-05-10T06:44:55;7.67;;;4.50;;
5813;SDS011;2933;52.302;8.134;2023-05-10T06:50:05;5.80;;;4.30;;
5813;SDS011;2933;52.302;8.134;2023-05-10T06:55:11;13.50;;;4.60;;
5813;SDS011;2933;52.302;8.134;2023-05-10T07:00:18;6.30;;;4.70;;
5813;SDS011;2933;52.302;8.134;2023-05-10T07:05:39;5.47;;;4.93;;
5813;SDS011;2933;52.302;8.134;2023-05-10T07:10:42;8.30;;;5.77;;
5813;SDS011;2933;52.302;8.134;2023-05-10T07:15:48;11.87;;;5.30;;
5813;SDS011;2933;52.302;8.134;2023-05-10T07:20:59;9.70;;;6.70;;
5813;SDS011;2933;52.302;8.134;2023-05-10T07:26:06;10.50;;;6.53;;
5813;SDS011;2933;52.302;8.134;2023-05-10T07:31:14;20.10;;;8.67;;
5813;SDS011;2933;52.302;8.134;2023-05-10T07:36:23;11.63;;;8.03;;
5813;SDS011;2933;52.302;8.134;2023-05-10T07:41:32;20.97;;;9.20;;
5813;SDS011;2933;52.302;8.134;2023-05-10T07:46:34;17.37;;;10.60;;
5813;SDS011;2933;52.302;8.134;2023-05-10T07:51:35;18.37;;;9.53;;
5813;SDS011;2933;52.302;8.134;2023-05-10T07:56:49;22.50;;;10.30;;
5813;SDS011;2933;52.302;8.134;2023-05-10T08:01:54;24.03;;;10.30;;
5813;SDS011;2933;52.302;8.134;2023-05-10T08:06:56;27.20;;;9.73;;
5813;SDS011;2933;52.302;8.134;2023-05-10T08:11:59;17.60;;;10.23;;
5813;SDS011;2933;52.302;8.134;2023-05-10T08:17:04;19.37;;;10.07;;
5813;SDS011;2933;52.302;8.134;2023-05-10T08:22:08;22.83;;;10.83;;
5813;SDS011;2933;52.302;8.134;2023-05-10T08:27:14;24.87;;;11.53;;
5813;SDS011;2933;52.302;8.134;2023-05-10T08:32:16;27.60;;;11.33;;
5813;SDS011;2933;52.302;8.134;2023-05-10T08:37:18;29.23;;;12.10;;
5813;SDS011;2933;52.302;8.134;2023-05-10T08:42:28;28.03;;;11.40;;
5813;SDS011;2933;52.302;8.134;2023-05-10T08:47:38;27.47;;;11.60;;
5813;SDS011;2933;52.302;8.134;2023-05-10T08:52:40;26.00;;;11.77;;
5813;SDS011;2933;52.302;8.134;2023-05-10T08:57:44;25.53;;;11.60;;
5813;SDS011;2933;52.302;8.134;2023-05-10T09:02:51;27.43;;;12.53;;
5813;SDS011;2933;52.302;8.134;2023-05-10T09:07:55;23.27;;;11.30;;
5813;SDS011;2933;52.302;8.134;2023-05-10T09:12:58;22.80;;;11.60;;
5813;SDS011;2933;52.302;8.134;2023-05-10T09:18:01;17.67;;;8.97;;
5813;SDS011;2933;52.302;8.134;2023-05-10T09:23:03;20.43;;;10.07;;
5813;SDS011;2933;52.302;8.134;2023-05-10T09:28:12;24.50;;;10.60;;
5813;SDS011;2933;52.302;8.134;2023-05-10T09:33:18;21.63;;;9.80;;
5813;SDS011;2933;52.302;8.134;2023-05-10T09:38:25;21.93;;;9.87;;
5813;SDS011;2933;52.302;8.134;2023-05-10T09:43:29;26.73;;;11.40;;
5813;SDS011;2933;52.302;8.134;2023-05-10T09:48:45;22.83;;;10.70;;
5813;SDS011;2933;52.302;8.134;2023-05-10T09:53:47;27.10;;;10.77;;
5813;SDS011;2933;52.302;8.134;2023-05-10T09:59:02;24.00;;;11.30;;
5813;SDS011;2933;52.302;8.134;2023-05-10T10:04:04;22.87;;;11.50;;
5813;SDS011;2933;52.302;8.134;2023-05-10T10:09:08;18.90;;;10.60;;
5813;SDS011;2933;52.302;8.134;2023-05-10T10:14:11;21.10;;;10.00;;
5813;SDS011;2933;52.302;8.134;2023-05-10T10:19:13;19.47;;;10.27;;
5813;SDS011;2933;52.302;8.134;2023-05-10T10:24:16;20.30;;;10.27;;
5813;SDS011;2933;52.302;8.134;2023-05-10T10:29:23;23.83;;;10.70;;
5813;SDS011;2933;52.302;8.134;2023-05-10T10:34:38;18.20;;;9.47;;
5813;SDS011;2933;52.302;8.134;2023-05-10T10:39:43;18.83;;;10.20;;
5813;SDS011;2933;52.302;8.134;2023-05-10T10:44:46;16.00;;;9.40;;
5813;SDS011;2933;52.302;8.134;2023-05-10T10:50:03;15.47;;;8.93;;
5813;SDS011;2933;52.302;8.134;2023-05-10T10:55:13;19.87;;;10.20;;
5813;SDS011;2933;52.302;8.134;2023-05-10T11:00:21;28.23;;;11.60;;
5813;SDS011;2933;52.302;8.134;2023-05-10T11:05:38;19.87;;;9.93;;
5813;SDS011;2933;52.302;8.134;2023-05-10T11:11:08;15.50;;;8.57;;
5813;SDS011;2933;52.302;8.134;2023-05-10T11:16:12;15.03;;;8.23;;
5813;SDS011;2933;52.302;8.134;2023-05-10T11:21:46;13.00;;;7.43;;
5813;SDS011;2933;52.302;8.134;2023-05-10T11:26:53;15.37;;;7.73;;
5813;SDS011;2933;52.302;8.134;2023-05-10T11:32:08;12.63;;;7.50;;
5813;SDS011;2933;52.302;8.134;2023-05-10T11:37:10;20.87;;;8.97;;
5813;SDS011;2933;52.302;8.134;2023-05-10T11:42:14;16.40;;;8.70;;
5813;SDS011;2933;52.302;8.134;2023-05-10T11:47:17;17.80;;;9.03;;
5813;SDS011;2933;52.302;8.134;2023-05-10T11:52:52;14.97;;;7.80;;
5813;SDS011;2933;52.302;8.134;2023-05-10T11:57:59;15.83;;;8.37;;
5813;SDS011;2933;52.302;8.134;2023-05-10T12:03:18;21.07;;;9.23;;
5813;SDS011;2933;52.302;8.134;2023-05-10T12:08:24;18.07;;;10.07;;
5813;SDS011;2933;52.302;8.134;2023-05-10T12:13:26;20.03;;;10.40;;
5813;SDS011;2933;52.302;8.134;2023-05-10T12:18:29;16.47;;;8.87;;
5813;SDS011;2933;52.302;8.134;2023-05-10T12:23:30;17.10;;;8.47;;
5813;SDS011;2933;52.302;8.134;2023-05-10T12:28:32;18.83;;;8.87;;
5813;SDS011;2933;52.302;8.134;2023-05-10T12:33:37;22.87;;;8.37;;
5813;SDS011;2933;52.302;8.134;2023-05-10T12:38:43;12.97;;;7.27;;
5813;SDS011;2933;52.302;8.134;2023-05-10T12:43:52;14.50;;;6.77;;
5813;SDS011;2933;52.302;8.134;2023-05-10T12:48:55;11.43;;;6.73;;
5813;SDS011;2933;52.302;8.134;2023-05-10T12:54:01;12.87;;;6.50;;
5813;SDS011;2933;52.302;8.134;2023-05-10T12:59:13;11.93;;;7.30;;
5813;SDS011;2933;52.302;8.134;2023-05-10T13:04:26;13.63;;;7.10;;
5813;SDS011;2933;52.302;8.134;2023-05-10T13:09:31;14.57;;;7.13;;
5813;SDS011;2933;52.302;8.134;2023-05-10T13:14:32;11.80;;;6.23;;
5813;SDS011;2933;52.302;8.134;2023-05-10T13:19:40;14.57;;;6.43;;
5813;SDS011;2933;52.302;8.134;2023-05-10T13:24:46;15.43;;;6.00;;
5813;SDS011;2933;52.302;8.134;2023-05-10T13:29:50;14.40;;;7.00;;
5813;SDS011;2933;52.302;8.134;2023-05-10T13:34:54;20.27;;;8.10;;
5813;SDS011;2933;52.302;8.134;2023-05-10T13:40:01;14.50;;;6.77;;
5813;SDS011;2933;52.302;8.134;2023-05-10T13:45:09;17.23;;;8.53;;
5813;SDS011;2933;52.302;8.134;2023-05-10T13:50:26;14.33;;;7.97;;
5813;SDS011;2933;52.302;8.134;2023-05-10T13:55:32;16.30;;;8.03;;
5813;SDS011;2933;52.302;8.134;2023-05-10T14:00:36;14.70;;;8.43;;
5813;SDS011;2933;52.302;8.134;2023-05-10T14:05:47;17.27;;;8.00;;
5813;SDS011;2933;52.302;8.134;2023-05-10T14:10:49;16.50;;;7.50;;
5813;SDS011;2933;52.302;8.134;2023-05-10T14:15:52;12.77;;;7.10;;
5813;SDS011;2933;52.302;8.134;2023-05-10T14:20:55;13.67;;;7.20;;
5813;SDS011;2933;52.302;8.134;2023-05-10T14:25:57;10.80;;;6.47;;
5813;SDS011;2933;52.302;8.134;2023-05-10T14:30:59;14.13;;;6.10;;
5813;SDS011;2933;52.302;8.134;2023-05-10T14:36:07;10.83;;;6.80;;
5813;SDS011;2933;52.302;8.134;2023-05-10T14:41:15;9.53;;;6.10;;
5813;SDS011;2933;52.302;8.134;2023-05-10T14:46:20;20.90;;;6.50;;
5813;SDS011;2933;52.302;8.134;2023-05-10T14:51:23;9.73;;;6.07;;
5813;SDS011;2933;52.302;8.134;2023-05-10T14:56:33;11.83;;;6.00;;
5813;SDS011;2933;52.302;8.134;2023-05-10T15:01:41;12.87;;;4.90;;
5813;SDS011;2933;52.302;8.134;2023-05-10T15:06:47;10.43;;;5.00;;
5813;SDS011;2933;52.302;8.134;2023-05-10T15:11:54;8.23;;;4.83;;
5813;SDS011;2933;52.302;8.134;2023-05-10T15:22:12;6.00;;;4.67;;
5813;SDS011;2933;52.302;8.134;2023-05-10T15:27:20;7.50;;;4.53;;
5813;SDS011;2933;52.302;8.134;2023-05-10T15:32:23;6.40;;;4.87;;
5813;SDS011;2933;52.302;8.134;2023-05-10T15:37:30;5.73;;;4.43;;
5813;SDS011;2933;52.302;8.134;2023-05-10T15:42:32;5.83;;;3.60;;
5813;SDS011;2933;52.302;8.134;2023-05-10T15:47:33;8.93;;;3.77;;
5813;SDS011;2933;52.302;8.134;2023-05-10T15:52:39;6.77;;;4.10;;
5813;SDS011;2933;52.302;8.134;2023-05-10T15:57:44;3.70;;;3.40;;
5813;SDS011;2933;52.302;8.134;2023-05-10T16:02:46;3.67;;;3.37;;
5813;SDS011;2933;52.302;8.134;2023-05-10T16:07:49;6.37;;;3.97;;
5813;SDS011;2933;52.302;8.134;2023-05-10T16:12:55;5.80;;;3.80;;
5813;SDS011;2933;52.302;8.134;2023-05-10T16:17:59;4.60;;;3.67;;
5813;SDS011;2933;52.302;8.134;2023-05-10T16:23:08;4.80;;;3.87;;
5813;SDS011;2933;52.302;8.134;2023-05-10T16:28:15;4.07;;;3.07;;
5813;SDS011;2933;52.302;8.134;2023-05-10T16:33:20;4.30;;;3.40;;
5813;SDS011;2933;52.302;8.134;2023-05-10T16:38:35;8.03;;;3.13;;
5813;SDS011;2933;52.302;8.134;2023-05-10T16:43:36;3.70;;;3.40;;
5813;SDS011;2933;52.302;8.134;2023-05-10T16:48:38;5.43;;;3.23;;
5813;SDS011;2933;52.302;8.134;2023-05-10T16:53:43;5.27;;;3.20;;
5813;SDS011;2933;52.302;8.134;2023-05-10T16:58:45;4.00;;;3.00;;
5813;SDS011;2933;52.302;8.134;2023-05-10T17:03:48;4.30;;;3.10;;
5813;SDS011;2933;52.302;8.134;2023-05-10T17:08:52;4.73;;;3.13;;
5813;SDS011;2933;52.302;8.134;2023-05-10T17:13:54;6.70;;;3.17;;
5813;SDS011;2933;52.302;8.134;2023-05-10T17:18:56;4.00;;;2.70;;
5813;SDS011;2933;52.302;8.134;2023-05-10T17:23:59;11.23;;;3.70;;
5813;SDS011;2933;52.302;8.134;2023-05-10T17:29:00;4.40;;;3.07;;
5813;SDS011;2933;52.302;8.134;2023-05-10T17:34:02;3.80;;;2.83;;
5813;SDS011;2933;52.302;8.134;2023-05-10T17:39:05;2.87;;;2.60;;
5813;SDS011;2933;52.302;8.134;2023-05-10T17:44:06;3.30;;;2.97;;
5813;SDS011;2933;52.302;8.134;2023-05-10T17:49:08;3.00;;;2.80;;
5813;SDS011;2933;52.302;8.134;2023-05-10T17:54:12;3.10;;;2.90;;
5813;SDS011;2933;52.302;8.134;2023-05-10T17:59:13;7.97;;;2.63;;
5813;SDS011;2933;52.302;8.134;2023-05-10T18:04:15;3.73;;;3.20;;
5813;SDS011;2933;52.302;8.134;2023-05-10T18:09:18;7.70;;;3.30;;
5813;SDS011;2933;52.302;8.134;2023-05-10T18:14:20;3.33;;;3.03;;
5813;SDS011;2933;52.302;8.134;2023-05-10T18:19:22;8.40;;;5.57;;
5813;SDS011;2933;52.302;8.134;2023-05-10T18:24:26;8.47;;;5.77;;
5813;SDS011;2933;52.302;8.134;2023-05-10T18:29:27;6.33;;;4.00;;
5813;SDS011;2933;52.302;8.134;2023-05-10T18:34:29;8.40;;;5.90;;
5813;SDS011;2933;52.302;8.134;2023-05-10T18:39:32;8.70;;;5.80;;
5813;SDS011;2933;52.302;8.134;2023-05-10T18:44:34;10.50;;;6.80;;
5813;SDS011;2933;52.302;8.134;2023-05-10T18:49:35;15.47;;;7.77;;
5813;SDS011;2933;52.302;8.134;2023-05-10T18:54:39;21.23;;;8.37;;
5813;SDS011;2933;52.302;8.134;2023-05-10T18:59:40;11.93;;;7.00;;
5813;SDS011;2933;52.302;8.134;2023-05-10T19:04:42;11.20;;;6.00;;
5813;SDS011;2933;52.302;8.134;2023-05-10T19:09:45;5.20;;;4.00;;
5813;SDS011;2933;52.302;8.134;2023-05-10T19:14:46;4.97;;;3.90;;
5813;SDS011;2933;52.302;8.134;2023-05-10T19:19:48;7.43;;;3.90;;
5813;SDS011;2933;52.302;8.134;2023-05-10T19:24:51;11.43;;;3.60;;
5813;SDS011;2933;52.302;8.134;2023-05-10T19:29:52;3.33;;;3.13;;
5813;SDS011;2933;52.302;8.134;2023-05-10T19:34:54;3.80;;;3.50;;
5813;SDS011;2933;52.302;8.134;2023-05-10T19:39:57;4.27;;;3.63;;
5813;SDS011;2933;52.302;8.134;2023-05-10T19:44:58;3.77;;;3.47;;
5813;SDS011;2933;52.302;8.134;2023-05-10T19:50:00;4.37;;;3.97;;
5813;SDS011;2933;52.302;8.134;2023-05-10T19:55:03;5.87;;;4.50;;
5813;SDS011;2933;52.302;8.134;2023-05-10T20:00:06;5.70;;;4.40;;
5813;SDS011;2933;52.302;8.134;2023-05-10T20:05:09;4.47;;;4.03;;
5813;SDS011;2933;52.302;8.134;2023-05-10T20:10:12;7.40;;;4.63;;
5813;SDS011;2933;52.302;8.134;2023-05-10T20:15:14;6.93;;;5.00;;
5813;SDS011;2933;52.302;8.134;2023-05-10T20:20:16;4.93;;;4.47;;
5813;SDS011;2933;52.302;8.134;2023-05-10T20:25:20;4.70;;;4.20;;
5813;SDS011;2933;52.302;8.134;2023-05-10T20:30:22;7.33;;;5.13;;
5813;SDS011;2933;52.302;8.134;2023-05-10T20:35:23;5.63;;;4.50;;
5813;SDS011;2933;52.302;8.134;2023-05-10T20:40:26;8.00;;;5.20;;
5813;SDS011;2933;52.302;8.134;2023-05-10T20:45:28;8.93;;;5.13;;
5813;SDS011;2933;52.302;8.134;2023-05-10T20:50:30;10.77;;;4.70;;
5813;SDS011;2933;52.302;8.134;2023-05-10T20:55:35;5.00;;;4.50;;
5813;SDS011;2933;52.302;8.134;2023-05-10T21:00:39;6.50;;;4.27;;
5813;SDS011;2933;52.302;8.134;2023-05-10T21:05:44;7.23;;;4.83;;
5813;SDS011;2933;52.302;8.134;2023-05-10T21:10:54;6.40;;;5.37;;
5813;SDS011;2933;52.302;8.134;2023-05-10T21:15:55;12.43;;;5.80;;
5813;SDS011;2933;52.302;8.134;2023-05-10T21:20:57;8.63;;;5.60;;
5813;SDS011;2933;52.302;8.134;2023-05-10T21:26:00;7.17;;;5.30;;
5813;SDS011;2933;52.302;8.134;2023-05-10T21:31:02;6.90;;;5.03;;
5813;SDS011;2933;52.302;8.134;2023-05-10T21:36:04;8.17;;;6.20;;
5813;SDS011;2933;52.302;8.134;2023-05-10T21:41:07;7.77;;;5.20;;
5813;SDS011;2933;52.302;8.134;2023-05-10T21:46:09;10.70;;;5.30;;
5813;SDS011;2933;52.302;8.134;2023-05-10T21:51:12;6.83;;;5.10;;
5813;SDS011;2933;52.302;8.134;2023-05-10T21:56:15;7.70;;;4.80;;
5813;SDS011;2933;52.302;8.134;2023-05-10T22:01:17;9.97;;;7.30;;
5813;SDS011;2933;52.302;8.134;2023-05-10T22:06:18;11.80;;;7.17;;
5813;SDS011;2933;52.302;8.134;2023-05-10T22:11:21;6.57;;;5.80;;
5813;SDS011;2933;52.302;8.134;2023-05-10T22:16:25;8.90;;;5.80;;
5813;SDS011;2933;52.302;8.134;2023-05-10T22:21:26;6.10;;;5.40;;
5813;SDS011;2933;52.302;8.134;2023-05-10T22:26:29;8.30;;;5.40;;
5813;SDS011;2933;52.302;8.134;2023-05-10T22:31:31;6.27;;;5.03;;
5813;SDS011;2933;52.302;8.134;2023-05-10T22:36:33;7.70;;;4.80;;
5813;SDS011;2933;52.302;8.134;2023-05-10T22:41:35;7.30;;;5.33;;
5813;SDS011;2933;52.302;8.134;2023-05-10T22:46:37;5.93;;;5.30;;
5813;SDS011;2933;52.302;8.134;2023-05-10T22:51:38;10.10;;;5.70;;
5813;SDS011;2933;52.302;8.134;2023-05-10T22:56:41;5.90;;;5.40;;
5813;SDS011;2933;52.302;8.134;2023-05-10T23:01:43;8.13;;;4.47;;
5813;SDS011;2933;52.302;8.134;2023-05-10T23:06:45;8.27;;;5.53;;
5813;SDS011;2933;52.302;8.134;2023-05-10T23:11:48;5.90;;;5.30;;
5813;SDS011;2933;52.302;8.134;2023-05-10T23:16:49;7.27;;;5.23;;
5813;SDS011;2933;52.302;8.134;2023-05-10T23:21:51;5.40;;;4.90;;
5813;SDS011;2933;52.302;8.134;2023-05-10T23:26:54;15.63;;;5.73;;
5813;SDS011;2933;52.302;8.134;2023-05-10T23:31:55;5.10;;;4.63;;
5813;SDS011;2933;52.302;8.134;2023-05-10T23:36:57;8.23;;;6.03;;
5813;SDS011;2933;52.302;8.134;2023-05-10T23:42:00;10.00;;;5.60;;
5813;SDS011;2933;52.302;8.134;2023-05-10T23:47:02;7.47;;;5.97;;
5813;SDS011;2933;52.302;8.134;2023-05-10T23:52:03;8.57;;;6.20;;
5813;SDS011;2933;52.302;8.134;2023-05-10T23:57:07;6.37;;;5.40;;
